createdAt,value
2019-02-27T00:00:11.433Z,63.24
2019-02-27T00:01:09.725Z,63.45
2019-02-27T00:02:09.668Z,63.34
2019-02-27T00:03:09.634Z,64.81
2019-02-27T00:04:09.623Z,65.33
2019-02-27T00:05:09.617Z,65.02
2019-02-27T00:06:09.605Z,65.64
2019-02-27T00:07:09.660Z,65.74
2019-02-27T00:08:09.583Z,66.15
2019-02-27T00:09:09.570Z,66.49
2019-02-27T00:10:09.565Z,66.80
2019-02-27T00:11:09.956Z,67.14
2019-02-27T00:12:09.554Z,67.86
2019-02-27T00:13:09.573Z,68.21
2019-02-27T00:14:09.510Z,67.55
2019-02-27T00:15:09.502Z,67.86
2019-02-27T00:16:11.155Z,68.72
2019-02-27T00:17:09.502Z,68.51
2019-02-27T00:18:09.469Z,68.38
2019-02-27T00:19:09.522Z,68.07
2019-02-27T00:20:09.443Z,68.72
2019-02-27T00:21:11.048Z,68.41
2019-02-27T00:22:09.477Z,68.85
2019-02-27T00:23:09.410Z,69.27
2019-02-27T00:24:09.422Z,69.27
2019-02-27T00:25:09.390Z,69.58
2019-02-27T00:26:09.609Z,69.89
2019-02-27T00:27:09.373Z,70.20
2019-02-27T00:28:09.426Z,70.30
2019-02-27T00:29:09.346Z,70.30
2019-02-27T00:30:09.334Z,69.30
2019-02-27T00:31:11.563Z,69.61
2019-02-27T00:32:09.341Z,69.37
2019-02-27T00:33:09.328Z,69.40
2019-02-27T00:34:09.290Z,69.30
2019-02-27T00:35:09.286Z,69.30
2019-02-27T00:36:11.964Z,69.30
2019-02-27T00:37:09.256Z,69.92
2019-02-27T00:38:09.313Z,70.54
2019-02-27T00:39:09.238Z,70.23
2019-02-27T00:40:09.227Z,70.23
2019-02-27T00:41:11.990Z,70.03
2019-02-27T00:42:09.200Z,69.82
2019-02-27T00:43:09.215Z,70.33
2019-02-27T00:44:09.228Z,70.03
2019-02-27T00:45:09.173Z,70.16
2019-02-27T00:46:10.763Z,70.26
2019-02-27T00:47:09.158Z,70.57
2019-02-27T00:48:09.160Z,70.47
2019-02-27T00:49:09.126Z,70.37
2019-02-27T00:50:09.157Z,71.40
2019-02-27T00:51:09.653Z,70.88
2019-02-27T00:52:09.095Z,71.61
2019-02-27T00:53:09.105Z,71.53
2019-02-27T00:54:09.074Z,71.61
2019-02-27T00:55:09.065Z,71.61
2019-02-27T00:56:11.948Z,71.53
2019-02-27T00:57:09.051Z,71.61
2019-02-27T00:58:09.051Z,70.88
2019-02-27T00:59:09.017Z,71.61
2019-02-27T01:00:09.020Z,71.95
2019-02-27T01:01:10.044Z,71.12
2019-02-27T01:02:08.986Z,71.12
2019-02-27T01:03:08.998Z,71.12
2019-02-27T01:04:08.961Z,71.61
2019-02-27T01:05:09.447Z,71.22
2019-02-27T01:06:08.945Z,72.02
2019-02-27T01:07:08.958Z,71.53
2019-02-27T01:08:08.944Z,71.92
2019-02-27T01:09:08.928Z,70.92
2019-02-27T01:10:12.016Z,70.92
2019-02-27T01:11:08.891Z,71.64
2019-02-27T01:12:08.883Z,71.84
2019-02-27T01:13:08.919Z,71.22
2019-02-27T01:14:08.854Z,71.22
2019-02-27T01:15:10.536Z,71.64
2019-02-27T01:16:08.846Z,71.26
2019-02-27T01:17:08.821Z,71.98
2019-02-27T01:18:08.838Z,71.26
2019-02-27T01:19:08.843Z,71.57
2019-02-27T01:20:11.183Z,71.98
2019-02-27T01:21:08.788Z,71.78
2019-02-27T01:22:08.767Z,72.08
2019-02-27T01:23:10.934Z,71.57
2019-02-27T01:24:08.746Z,72.29
2019-02-27T01:25:08.732Z,72.50
2019-02-27T01:26:08.758Z,72.08
2019-02-27T01:27:08.714Z,72.81
2019-02-27T01:28:10.963Z,72.91
2019-02-27T01:29:08.696Z,72.91
2019-02-27T01:30:08.683Z,71.98
2019-02-27T01:31:08.668Z,72.19
2019-02-27T01:32:08.703Z,71.36
2019-02-27T01:33:08.678Z,71.67
2019-02-27T01:34:11.141Z,71.88
2019-02-27T01:35:08.625Z,71.67
2019-02-27T01:36:08.614Z,71.15
2019-02-27T01:37:08.600Z,71.98
2019-02-27T01:38:08.636Z,73.25
2019-02-27T01:39:09.019Z,73.05
2019-02-27T01:40:08.571Z,71.88
2019-02-27T01:41:08.558Z,71.88
2019-02-27T01:42:08.547Z,72.81
2019-02-27T01:43:08.565Z,71.98
2019-02-27T01:44:11.096Z,72.74
2019-02-27T01:45:09.516Z,72.08
2019-02-27T01:46:08.505Z,71.91
2019-02-27T01:47:08.491Z,72.29
2019-02-27T01:48:09.222Z,72.53
2019-02-27T01:49:08.469Z,71.88
2019-02-27T01:50:08.500Z,72.39
2019-02-27T01:51:08.452Z,72.19
2019-02-27T01:52:08.445Z,72.64
2019-02-27T01:53:08.461Z,72.74
2019-02-27T01:54:08.417Z,73.25
2019-02-27T01:55:08.407Z,72.53
2019-02-27T01:56:08.499Z,73.25
2019-02-27T01:57:08.383Z,71.88
2019-02-27T01:58:09.567Z,71.91
2019-02-27T01:59:08.385Z,72.12
2019-02-27T02:00:08.360Z,71.19
2019-02-27T02:01:08.341Z,71.29
2019-02-27T02:02:08.389Z,71.50
2019-02-27T02:03:08.319Z,71.29
2019-02-27T02:04:08.330Z,72.12
2019-02-27T02:05:08.334Z,71.60
2019-02-27T02:06:08.281Z,71.81
2019-02-27T02:07:08.276Z,71.81
2019-02-27T02:08:08.316Z,70.47
2019-02-27T02:09:08.279Z,69.84
2019-02-27T02:10:08.237Z,69.92
2019-02-27T02:11:08.227Z,70.43
2019-02-27T02:12:08.775Z,69.84
2019-02-27T02:13:08.208Z,70.77
2019-02-27T02:14:08.261Z,70.67
2019-02-27T02:15:08.182Z,69.64
2019-02-27T02:16:08.175Z,70.18
2019-02-27T02:17:08.164Z,70.50
2019-02-27T02:18:08.150Z,71.22
2019-02-27T02:19:08.167Z,70.70
2019-02-27T02:20:08.182Z,71.43
2019-02-27T02:21:08.117Z,71.53
2019-02-27T02:22:08.877Z,71.53
2019-02-27T02:23:08.099Z,71.63
2019-02-27T02:24:08.113Z,70.70
2019-02-27T02:25:08.081Z,70.50
2019-02-27T02:26:08.074Z,70.70
2019-02-27T02:27:08.786Z,71.94
2019-02-27T02:28:08.085Z,70.81
2019-02-27T02:29:08.056Z,71.08
2019-02-27T02:30:08.020Z,70.15
2019-02-27T02:31:08.011Z,70.15
2019-02-27T02:32:08.026Z,69.84
2019-02-27T02:33:07.998Z,69.32
2019-02-27T02:34:08.064Z,69.64
2019-02-27T02:35:07.977Z,69.01
2019-02-27T02:36:07.957Z,69.22
2019-02-27T02:37:07.953Z,70.05
2019-02-27T02:38:12.125Z,70.77
2019-02-27T02:39:08.981Z,70.47
2019-02-27T02:40:07.909Z,69.95
2019-02-27T02:41:09.224Z,69.22
2019-02-27T02:42:07.948Z,69.84
2019-02-27T02:43:07.876Z,70.05
2019-02-27T02:44:07.867Z,69.53
2019-02-27T02:45:07.887Z,69.64
2019-02-27T02:46:08.858Z,70.50
2019-02-27T02:47:07.868Z,70.67
2019-02-27T02:48:07.822Z,70.77
2019-02-27T02:49:08.502Z,71.50
2019-02-27T02:50:07.821Z,70.57
2019-02-27T02:51:07.796Z,71.22
2019-02-27T02:52:07.777Z,71.50
2019-02-27T02:53:07.824Z,71.60
2019-02-27T02:54:07.756Z,70.47
2019-02-27T02:55:11.961Z,70.87
2019-02-27T02:56:07.734Z,71.94
2019-02-27T02:57:07.724Z,72.15
2019-02-27T02:58:11.364Z,72.05
2019-02-27T02:59:07.702Z,71.94
2019-02-27T03:00:07.749Z,71.46
2019-02-27T03:01:14.155Z,71.98
2019-02-27T03:02:08.669Z,72.19
2019-02-27T03:03:07.659Z,72.32
2019-02-27T03:04:12.568Z,71.80
2019-02-27T03:05:08.639Z,71.49
2019-02-27T03:06:07.691Z,72.53
2019-02-27T03:07:10.949Z,71.80
2019-02-27T03:08:07.600Z,71.70
2019-02-27T03:09:07.605Z,72.11
2019-02-27T03:10:08.302Z,71.70
2019-02-27T03:11:07.605Z,71.28
2019-02-27T03:12:07.615Z,70.56
2019-02-27T03:13:07.568Z,71.08
2019-02-27T03:14:07.538Z,71.91
2019-02-27T03:15:07.527Z,71.80
2019-02-27T03:16:07.548Z,70.53
2019-02-27T03:17:07.508Z,70.32
2019-02-27T03:18:07.536Z,70.73
2019-02-27T03:19:07.483Z,71.56
2019-02-27T03:20:07.472Z,71.25
2019-02-27T03:21:07.497Z,70.84
2019-02-27T03:22:07.455Z,69.70
2019-02-27T03:23:07.445Z,70.73
2019-02-27T03:24:07.466Z,69.39
2019-02-27T03:25:07.427Z,69.70
2019-02-27T03:26:07.400Z,68.80
2019-02-27T03:27:07.424Z,69.53
2019-02-27T03:28:07.381Z,68.90
2019-02-27T03:29:07.381Z,68.18
2019-02-27T03:30:07.369Z,69.87
2019-02-27T03:31:16.241Z,69.73
2019-02-27T03:32:08.360Z,70.39
2019-02-27T03:33:07.327Z,70.80
2019-02-27T03:34:09.066Z,71.70
2019-02-27T03:35:07.308Z,71.80
2019-02-27T03:36:07.292Z,70.25
2019-02-27T03:37:07.323Z,70.87
2019-02-27T03:38:08.309Z,69.94
2019-02-27T03:39:07.260Z,70.39
2019-02-27T03:40:10.792Z,70.49
2019-02-27T03:41:07.239Z,70.80
2019-02-27T03:42:07.261Z,69.97
2019-02-27T03:43:10.166Z,71.53
2019-02-27T03:44:07.227Z,70.80
2019-02-27T03:45:07.192Z,72.25
2019-02-27T03:46:07.312Z,71.42
2019-02-27T03:47:07.167Z,70.90
2019-02-27T03:48:07.184Z,71.73
2019-02-27T03:49:07.143Z,72.11
2019-02-27T03:50:07.185Z,71.63
2019-02-27T03:51:07.121Z,71.70
2019-02-27T03:52:07.115Z,72.15
2019-02-27T03:53:10.849Z,71.59
2019-02-27T03:54:07.088Z,71.08
2019-02-27T03:55:07.078Z,71.42
2019-02-27T03:56:09.734Z,72.25
2019-02-27T03:57:07.100Z,72.15
2019-02-27T03:58:07.068Z,72.15
2019-02-27T03:59:07.569Z,71.59
2019-02-27T04:00:07.022Z,70.76
2019-02-27T04:01:07.011Z,70.67
2019-02-27T04:02:07.048Z,71.80
2019-02-27T04:03:07.014Z,71.08
2019-02-27T04:04:06.982Z,70.90
2019-02-27T04:05:07.580Z,71.63
2019-02-27T04:06:06.968Z,72.25
2019-02-27T04:07:06.942Z,71.94
2019-02-27T04:08:08.603Z,72.25
2019-02-27T04:09:06.949Z,72.15
2019-02-27T04:10:06.925Z,72.25
2019-02-27T04:11:06.978Z,72.15
2019-02-27T04:12:06.890Z,72.11
2019-02-27T04:13:06.876Z,71.11
2019-02-27T04:14:06.899Z,71.42
2019-02-27T04:15:06.863Z,71.53
2019-02-27T04:16:06.843Z,70.83
2019-02-27T04:17:07.705Z,71.53
2019-02-27T04:18:06.829Z,71.14
2019-02-27T04:19:06.835Z,71.66
2019-02-27T04:20:06.803Z,70.21
2019-02-27T04:21:06.788Z,69.17
2019-02-27T04:22:06.775Z,69.69
2019-02-27T04:23:11.182Z,69.59
2019-02-27T04:24:07.775Z,70.31
2019-02-27T04:25:06.752Z,71.80
2019-02-27T04:26:06.797Z,70.97
2019-02-27T04:27:06.719Z,70.14
2019-02-27T04:28:06.712Z,71.08
2019-02-27T04:29:08.509Z,71.28
2019-02-27T04:30:06.710Z,70.97
2019-02-27T04:31:06.675Z,71.18
2019-02-27T04:32:09.522Z,71.39
2019-02-27T04:33:07.653Z,70.76
2019-02-27T04:34:06.670Z,69.93
2019-02-27T04:35:06.921Z,70.25
2019-02-27T04:36:06.624Z,71.18
2019-02-27T04:37:06.610Z,71.25
2019-02-27T04:38:06.594Z,71.56
2019-02-27T04:39:06.610Z,69.79
2019-02-27T04:40:10.842Z,69.38
2019-02-27T04:41:06.566Z,70.42
2019-02-27T04:42:06.610Z,71.66
2019-02-27T04:43:06.539Z,71.25
2019-02-27T04:44:06.553Z,70.10
2019-02-27T04:45:06.517Z,70.70
2019-02-27T04:46:06.536Z,69.66
2019-02-27T04:47:06.501Z,69.69
2019-02-27T04:48:06.595Z,71.14
2019-02-27T04:49:06.493Z,70.10
2019-02-27T04:50:06.460Z,70.00
2019-02-27T04:51:06.447Z,69.59
2019-02-27T04:52:06.437Z,69.48
2019-02-27T04:53:06.428Z,69.79
2019-02-27T04:54:07.404Z,69.79
2019-02-27T04:55:06.403Z,70.21
2019-02-27T04:56:06.391Z,70.73
2019-02-27T04:57:06.381Z,70.94
2019-02-27T04:58:08.581Z,70.83
2019-02-27T04:59:06.365Z,70.42
2019-02-27T05:00:06.458Z,70.83
2019-02-27T05:01:06.338Z,70.10
2019-02-27T05:02:06.327Z,71.66
2019-02-27T05:03:06.314Z,70.52
2019-02-27T05:04:06.304Z,70.52
2019-02-27T05:05:08.601Z,70.52
2019-02-27T05:06:06.320Z,71.14
2019-02-27T05:07:06.336Z,70.39
2019-02-27T05:08:06.265Z,70.21
2019-02-27T05:09:06.250Z,70.21
2019-02-27T05:10:07.271Z,71.14
2019-02-27T05:11:06.227Z,70.28
2019-02-27T05:12:06.220Z,68.96
2019-02-27T05:13:06.262Z,70.31
2019-02-27T05:14:06.194Z,69.69
2019-02-27T05:15:06.209Z,70.62
2019-02-27T05:16:06.171Z,70.00
2019-02-27T05:17:06.159Z,70.83
2019-02-27T05:18:06.149Z,69.38
2019-02-27T05:19:06.156Z,70.21
2019-02-27T05:20:06.149Z,69.59
2019-02-27T05:21:06.119Z,70.21
2019-02-27T05:22:06.110Z,69.83
2019-02-27T05:23:06.094Z,69.62
2019-02-27T05:24:07.661Z,70.14
2019-02-27T05:25:06.159Z,69.83
2019-02-27T05:26:06.058Z,70.25
2019-02-27T05:27:06.046Z,69.93
2019-02-27T05:28:06.035Z,69.73
2019-02-27T05:29:06.026Z,69.07
2019-02-27T05:30:06.039Z,68.48
2019-02-27T05:31:06.073Z,69.24
2019-02-27T05:32:05.990Z,69.86
2019-02-27T05:33:05.983Z,71.52
2019-02-27T05:34:05.969Z,71.94
2019-02-27T05:35:05.985Z,70.35
2019-02-27T05:36:05.957Z,70.56
2019-02-27T05:37:06.073Z,69.31
2019-02-27T05:38:05.923Z,69.52
2019-02-27T05:39:05.911Z,69.10
2019-02-27T05:40:05.954Z,69.00
2019-02-27T05:41:05.888Z,69.03
2019-02-27T05:42:06.384Z,69.55
2019-02-27T05:43:05.918Z,69.76
2019-02-27T05:44:05.857Z,69.79
2019-02-27T05:45:05.868Z,70.10
2019-02-27T05:46:05.834Z,70.93
2019-02-27T05:47:05.829Z,70.59
2019-02-27T05:48:05.886Z,69.86
2019-02-27T05:49:05.807Z,70.48
2019-02-27T05:50:05.825Z,70.38
2019-02-27T05:51:07.537Z,70.51
2019-02-27T05:52:05.770Z,70.38
2019-02-27T05:53:05.756Z,70.48
2019-02-27T05:54:05.803Z,70.28
2019-02-27T05:55:06.373Z,69.68
2019-02-27T05:56:05.745Z,69.86
2019-02-27T05:57:05.716Z,69.24
2019-02-27T05:58:05.699Z,69.45
2019-02-27T05:59:05.700Z,69.13
2019-02-27T06:00:07.098Z,68.72
2019-02-27T06:01:05.924Z,68.62
2019-02-27T06:02:05.663Z,68.75
2019-02-27T06:03:05.641Z,69.17
2019-02-27T06:04:05.629Z,69.61
2019-02-27T06:05:05.623Z,69.27
2019-02-27T06:06:06.758Z,68.85
2019-02-27T06:07:05.595Z,68.51
2019-02-27T06:08:05.590Z,67.99
2019-02-27T06:09:10.069Z,68.30
2019-02-27T06:10:05.629Z,68.30
2019-02-27T06:11:05.577Z,68.10
2019-02-27T06:12:06.848Z,67.79
2019-02-27T06:13:05.531Z,68.30
2019-02-27T06:14:05.523Z,67.99
2019-02-27T06:15:05.513Z,67.37
2019-02-27T06:16:08.948Z,67.27
2019-02-27T06:17:05.487Z,67.16
2019-02-27T06:18:05.476Z,67.34
2019-02-27T06:19:05.497Z,67.86
2019-02-27T06:20:07.692Z,68.48
2019-02-27T06:21:05.464Z,68.48
2019-02-27T06:22:05.989Z,68.20
2019-02-27T06:23:07.247Z,68.41
2019-02-27T06:24:05.418Z,68.27
2019-02-27T06:25:05.416Z,68.30
2019-02-27T06:26:05.546Z,69.00
2019-02-27T06:27:06.283Z,68.48
2019-02-27T06:28:05.364Z,68.69
2019-02-27T06:29:05.355Z,69.93
2019-02-27T06:30:05.367Z,69.38
2019-02-27T06:31:05.351Z,68.24
2019-02-27T06:32:05.373Z,67.51
2019-02-27T06:33:05.312Z,68.03
2019-02-27T06:34:05.295Z,67.51
2019-02-27T06:35:05.287Z,66.78
2019-02-27T06:36:07.704Z,67.20
2019-02-27T06:37:05.270Z,67.51
2019-02-27T06:38:05.306Z,67.41
2019-02-27T06:39:05.242Z,67.20
2019-02-27T06:40:07.392Z,68.44
2019-02-27T06:41:05.245Z,67.61
2019-02-27T06:42:05.232Z,67.41
2019-02-27T06:43:05.195Z,67.51
2019-02-27T06:44:05.192Z,67.30
2019-02-27T06:45:05.249Z,67.30
2019-02-27T06:46:05.203Z,65.86
2019-02-27T06:47:07.119Z,67.07
2019-02-27T06:48:09.330Z,67.17
2019-02-27T06:49:06.128Z,67.07
2019-02-27T06:50:05.124Z,66.62
2019-02-27T06:51:05.139Z,66.72
2019-02-27T06:52:08.988Z,67.14
2019-02-27T06:53:05.092Z,65.97
2019-02-27T06:54:05.078Z,64.42
2019-02-27T06:55:05.066Z,63.90
2019-02-27T06:56:05.056Z,63.66
2019-02-27T06:57:07.749Z,62.73
2019-02-27T06:58:05.161Z,63.87
2019-02-27T06:59:05.020Z,62.63
2019-02-27T07:00:05.010Z,62.94
2019-02-27T07:01:09.174Z,62.60
2019-02-27T07:02:06.046Z,61.36
2019-02-27T07:03:04.979Z,61.22
2019-02-27T07:04:05.454Z,61.02
2019-02-27T07:05:05.126Z,61.61
2019-02-27T07:06:05.070Z,60.58
2019-02-27T07:07:04.964Z,60.14
2019-02-27T07:08:05.339Z,59.52
2019-02-27T07:09:05.115Z,59.80
2019-02-27T07:10:04.990Z,59.59
2019-02-27T07:11:10.822Z,58.76
2019-02-27T07:12:07.245Z,59.05
2019-02-27T07:13:04.869Z,59.77
2019-02-27T07:14:04.965Z,58.40
2019-02-27T07:15:04.851Z,58.50
2019-02-27T07:16:04.839Z,57.89
2019-02-27T07:17:04.843Z,57.96
2019-02-27T07:18:06.140Z,56.34
2019-02-27T07:19:04.824Z,57.03
2019-02-27T07:20:04.787Z,57.14
2019-02-27T07:21:04.775Z,55.18
2019-02-27T07:22:06.251Z,56.62
2019-02-27T07:23:04.759Z,56.00
2019-02-27T07:24:04.745Z,56.93
2019-02-27T07:25:06.621Z,55.57
2019-02-27T07:26:04.720Z,56.08
2019-02-27T07:27:04.738Z,54.64
2019-02-27T07:28:08.416Z,56.18
2019-02-27T07:29:04.709Z,55.05
2019-02-27T07:30:04.880Z,56.16
2019-02-27T07:31:04.665Z,55.43
2019-02-27T07:32:04.680Z,54.38
2019-02-27T07:33:06.738Z,56.62
2019-02-27T07:34:04.633Z,55.69
2019-02-27T07:35:04.633Z,55.15
2019-02-27T07:36:04.610Z,54.64
2019-02-27T07:37:04.602Z,53.81
2019-02-27T07:38:04.609Z,54.41
2019-02-27T07:39:04.599Z,54.41
2019-02-27T07:40:07.943Z,52.94
2019-02-27T07:41:04.552Z,52.94
2019-02-27T07:42:04.550Z,54.59
2019-02-27T07:43:05.765Z,54.77
2019-02-27T07:44:04.551Z,54.77
2019-02-27T07:45:04.510Z,53.12
2019-02-27T07:46:04.501Z,52.89
2019-02-27T07:47:04.490Z,54.33
2019-02-27T07:48:04.501Z,52.56
2019-02-27T07:49:04.506Z,51.56
2019-02-27T07:50:06.361Z,51.97
2019-02-27T07:51:04.481Z,50.53
2019-02-27T07:52:04.431Z,51.56
2019-02-27T07:53:04.453Z,52.46
2019-02-27T07:54:04.411Z,50.71
2019-02-27T07:55:15.547Z,51.64
2019-02-27T07:56:05.385Z,52.33
2019-02-27T07:57:04.375Z,50.59
2019-02-27T07:58:04.392Z,50.46
2019-02-27T07:59:04.356Z,49.31
2019-02-27T08:00:04.366Z,48.18
2019-02-27T08:01:04.752Z,49.41
2019-02-27T08:02:04.328Z,47.85
2019-02-27T08:03:09.215Z,48.98
2019-02-27T08:04:05.301Z,48.96
2019-02-27T08:05:04.291Z,47.52
2019-02-27T08:06:04.320Z,48.32
2019-02-27T08:07:04.266Z,48.50
2019-02-27T08:08:04.282Z,47.45
2019-02-27T08:09:04.294Z,46.45
2019-02-27T08:10:04.789Z,46.33
2019-02-27T08:11:04.234Z,47.23
2019-02-27T08:12:04.238Z,45.39
2019-02-27T08:13:04.247Z,46.41
2019-02-27T08:14:04.200Z,45.39
2019-02-27T08:15:04.503Z,46.51
2019-02-27T08:16:04.169Z,44.57
2019-02-27T08:17:16.779Z,44.67
2019-02-27T08:18:05.254Z,46.19
2019-02-27T08:19:04.133Z,44.94
2019-02-27T08:20:04.168Z,44.84
2019-02-27T08:21:04.114Z,43.61
2019-02-27T08:22:04.106Z,44.12
2019-02-27T08:23:04.145Z,42.59
2019-02-27T08:24:07.480Z,44.92
2019-02-27T08:25:04.068Z,40.53
2019-02-27T08:26:05.115Z,42.36
2019-02-27T08:27:04.044Z,38.78
2019-02-27T08:28:04.035Z,40.71
2019-02-27T08:29:04.055Z,38.67
2019-02-27T08:30:04.014Z,38.39
2019-02-27T08:31:04.017Z,41.33
2019-02-27T08:32:05.485Z,39.90
2019-02-27T08:33:08.165Z,39.37
2019-02-27T08:34:04.003Z,38.96
2019-02-27T08:35:04.008Z,38.53
2019-02-27T08:36:04.028Z,39.06
2019-02-27T08:37:03.958Z,38.64
2019-02-27T08:38:03.935Z,36.19
2019-02-27T08:39:03.947Z,37.31
2019-02-27T08:40:03.947Z,38.12
2019-02-27T08:41:03.983Z,37.51
2019-02-27T08:42:04.147Z,38.82
2019-02-27T08:43:03.881Z,37.60
2019-02-27T08:44:03.898Z,38.11
2019-02-27T08:45:03.857Z,37.48
2019-02-27T08:46:03.850Z,38.90
2019-02-27T08:47:04.317Z,36.36
2019-02-27T08:48:03.822Z,35.85
2019-02-27T08:49:03.832Z,37.36
2019-02-27T08:50:03.827Z,37.87
2019-02-27T08:51:08.383Z,36.65
2019-02-27T08:52:03.779Z,38.07
2019-02-27T08:53:03.768Z,37.65
2019-02-27T08:54:03.803Z,36.32
2019-02-27T08:55:05.723Z,35.49
2019-02-27T08:56:03.732Z,37.84
2019-02-27T08:57:03.723Z,36.51
2019-02-27T08:58:03.761Z,36.19
2019-02-27T08:59:05.815Z,35.48
2019-02-27T09:00:03.704Z,35.99
2019-02-27T09:01:03.726Z,35.58
2019-02-27T09:02:03.667Z,34.24
2019-02-27T09:03:03.842Z,34.04
2019-02-27T09:04:03.689Z,34.66
2019-02-27T09:05:03.641Z,35.86
2019-02-27T09:06:03.631Z,34.44
2019-02-27T09:07:03.755Z,35.75
2019-02-27T09:08:03.632Z,35.63
2019-02-27T09:09:03.686Z,34.52
2019-02-27T09:10:03.588Z,34.21
2019-02-27T09:11:06.594Z,35.22
2019-02-27T09:12:03.609Z,35.00
2019-02-27T09:13:05.889Z,32.37
2019-02-27T09:14:03.684Z,34.70
2019-02-27T09:15:03.551Z,34.50
2019-02-27T09:16:03.548Z,33.99
2019-02-27T09:17:03.508Z,31.66
2019-02-27T09:18:03.495Z,35.51
2019-02-27T09:19:03.611Z,32.87
2019-02-27T09:20:03.474Z,34.19
2019-02-27T09:21:03.471Z,33.70
2019-02-27T09:22:03.455Z,32.18
2019-02-27T09:23:03.447Z,32.18
2019-02-27T09:24:03.427Z,31.25
2019-02-27T09:25:03.447Z,32.47
2019-02-27T09:26:03.519Z,32.77
2019-02-27T09:27:03.401Z,33.89
2019-02-27T09:28:03.604Z,31.03
2019-02-27T09:29:03.387Z,32.56
2019-02-27T09:30:03.385Z,31.13
2019-02-27T09:31:04.426Z,31.34
2019-02-27T09:32:03.339Z,31.52
2019-02-27T09:33:03.332Z,32.64
2019-02-27T09:34:03.320Z,31.52
2019-02-27T09:35:03.334Z,33.15
2019-02-27T09:36:03.298Z,30.91
2019-02-27T09:37:03.285Z,31.29
2019-02-27T09:38:03.299Z,33.72
2019-02-27T09:39:03.264Z,30.48
2019-02-27T09:40:05.697Z,31.49
2019-02-27T09:41:03.244Z,29.66
2019-02-27T09:42:03.257Z,29.56
2019-02-27T09:43:03.221Z,30.57
2019-02-27T09:44:03.214Z,31.29
2019-02-27T09:45:03.227Z,31.19
2019-02-27T09:46:03.187Z,30.18
2019-02-27T09:47:03.193Z,32.09
2019-02-27T09:48:03.167Z,31.78
2019-02-27T09:49:06.857Z,32.90
2019-02-27T09:50:03.176Z,29.86
2019-02-27T09:51:03.153Z,30.07
2019-02-27T09:52:03.169Z,29.76
2019-02-27T09:53:03.649Z,30.46
2019-02-27T09:54:03.119Z,30.05
2019-02-27T09:55:03.113Z,30.44
2019-02-27T09:56:03.077Z,30.83
2019-02-27T09:57:03.100Z,29.11
2019-02-27T09:58:03.063Z,30.11
2019-02-27T09:59:03.066Z,29.60
2019-02-27T10:00:03.078Z,30.11
2019-02-27T10:01:03.284Z,27.59
2019-02-27T10:02:03.071Z,30.22
2019-02-27T10:03:03.048Z,29.92
2019-02-27T10:04:02.993Z,29.40
2019-02-27T10:05:03.773Z,28.89
2019-02-27T10:06:02.975Z,27.87
2019-02-27T10:07:02.976Z,28.17
2019-02-27T10:08:02.949Z,27.67
2019-02-27T10:09:02.940Z,27.86
2019-02-27T10:10:02.953Z,27.25
2019-02-27T10:11:02.915Z,28.06
2019-02-27T10:12:02.914Z,27.36
2019-02-27T10:13:04.021Z,27.95
2019-02-27T10:14:02.905Z,28.47
2019-02-27T10:15:02.872Z,27.55
2019-02-27T10:16:03.720Z,27.67
2019-02-27T10:17:02.848Z,27.96
2019-02-27T10:18:02.848Z,27.67
2019-02-27T10:19:02.836Z,29.08
2019-02-27T10:20:02.982Z,30.47
2019-02-27T10:21:02.867Z,29.66
2019-02-27T10:22:02.796Z,29.55
2019-02-27T10:23:02.804Z,29.04
2019-02-27T10:24:04.850Z,28.23
2019-02-27T10:25:02.763Z,28.83
2019-02-27T10:26:02.796Z,28.02
2019-02-27T10:27:03.216Z,29.03
2019-02-27T10:28:04.350Z,27.92
2019-02-27T10:29:02.733Z,27.72
2019-02-27T10:30:11.146Z,29.23
2019-02-27T10:31:03.729Z,29.53
2019-02-27T10:32:02.689Z,30.22
2019-02-27T10:33:03.503Z,27.82
2019-02-27T10:34:02.669Z,29.72
2019-02-27T10:35:02.654Z,28.31
2019-02-27T10:36:03.698Z,27.20
2019-02-27T10:37:02.720Z,26.68
2019-02-27T10:38:02.631Z,27.59
2019-02-27T10:39:02.807Z,27.39
2019-02-27T10:40:02.621Z,27.37
2019-02-27T10:41:02.645Z,25.87
2019-02-27T10:42:02.594Z,27.76
2019-02-27T10:43:02.626Z,26.87
2019-02-27T10:44:02.593Z,30.40
2019-02-27T10:45:02.551Z,27.87
2019-02-27T10:46:02.572Z,27.75
2019-02-27T10:47:02.526Z,27.75
2019-02-27T10:48:02.525Z,27.35
2019-02-27T10:49:02.525Z,27.66
2019-02-27T10:50:03.106Z,26.04
2019-02-27T10:51:02.518Z,26.14
2019-02-27T10:52:02.476Z,26.54
2019-02-27T10:53:02.462Z,27.75
2019-02-27T10:54:05.302Z,27.84
2019-02-27T10:55:02.450Z,26.93
2019-02-27T10:56:02.484Z,27.22
2019-02-27T10:57:02.457Z,27.22
2019-02-27T10:58:02.427Z,27.34
2019-02-27T10:59:02.399Z,27.64
2019-02-27T11:00:02.386Z,27.62
2019-02-27T11:01:02.377Z,27.12
2019-02-27T11:02:02.390Z,26.91
2019-02-27T11:03:02.354Z,26.41
2019-02-27T11:04:03.109Z,25.72
2019-02-27T11:05:02.342Z,27.33
2019-02-27T11:06:02.326Z,27.11
2019-02-27T11:07:02.350Z,26.21
2019-02-27T11:08:02.308Z,25.60
2019-02-27T11:09:04.737Z,25.70
2019-02-27T11:10:02.281Z,25.59
2019-02-27T11:11:02.280Z,25.89
2019-02-27T11:12:02.281Z,25.68
2019-02-27T11:13:05.618Z,25.68
2019-02-27T11:14:02.235Z,25.77
2019-02-27T11:15:02.256Z,25.97
2019-02-27T11:16:02.235Z,27.08
2019-02-27T11:17:03.261Z,26.47
2019-02-27T11:18:05.419Z,25.57
2019-02-27T11:19:02.215Z,26.28
2019-02-27T11:20:02.200Z,26.39
2019-02-27T11:21:02.160Z,26.07
2019-02-27T11:22:02.209Z,25.68
2019-02-27T11:23:06.441Z,25.67
2019-02-27T11:24:02.189Z,26.16
2019-02-27T11:25:02.561Z,26.04
2019-02-27T11:26:02.147Z,25.73
2019-02-27T11:27:03.503Z,26.03
2019-02-27T11:28:02.269Z,24.44
2019-02-27T11:29:02.125Z,25.03
2019-02-27T11:30:03.335Z,26.12
2019-02-27T11:31:02.084Z,25.32
2019-02-27T11:32:02.183Z,25.22
2019-02-27T11:33:02.029Z,24.34
2019-02-27T11:34:02.093Z,25.97
2019-02-27T11:35:02.015Z,26.96
2019-02-27T11:36:03.192Z,25.54
2019-02-27T11:37:02.045Z,26.03
2019-02-27T11:38:02.011Z,25.72
2019-02-27T12:01:56.971Z,25.52
2019-02-27T12:02:56.998Z,25.12
2019-02-27T12:03:57.043Z,25.62
2019-02-27T12:04:56.916Z,25.32
2019-02-27T12:05:56.913Z,25.72
2019-02-27T12:06:56.893Z,25.31
2019-02-27T12:07:56.953Z,25.49
2019-02-27T12:08:59.582Z,25.09
2019-02-27T12:09:56.858Z,24.68
2019-02-27T12:10:56.850Z,24.79
2019-02-27T12:11:56.839Z,25.78
2019-02-27T12:13:00.926Z,25.57
2019-02-27T12:13:56.887Z,24.56
2019-02-27T12:14:59.763Z,24.26
2019-02-27T12:15:56.890Z,24.25
2019-02-27T12:16:57.031Z,24.77
2019-02-27T12:17:59.900Z,25.18
2019-02-27T12:18:56.781Z,25.28
2019-02-27T12:19:56.778Z,24.36
2019-02-27T12:20:56.746Z,24.45
2019-02-27T12:21:59.477Z,24.44
2019-02-27T12:22:56.766Z,23.94
2019-02-27T12:23:56.713Z,23.33
2019-02-27T12:24:58.267Z,23.12
2019-02-27T12:25:56.785Z,23.11
2019-02-27T12:26:56.943Z,24.10
2019-02-27T12:27:57.238Z,23.11
2019-02-27T12:28:56.759Z,23.21
2019-02-27T12:29:56.665Z,23.34
2019-02-27T12:30:56.718Z,23.25
2019-02-27T12:31:56.640Z,23.54
2019-02-27T12:32:57.067Z,23.55
2019-02-27T12:33:56.633Z,24.14
2019-02-27T12:34:56.614Z,24.74
2019-02-27T12:35:56.580Z,24.02
2019-02-27T12:36:56.569Z,23.71
2019-02-27T12:37:56.565Z,23.00
2019-02-27T12:38:56.634Z,22.21
2019-02-27T12:39:56.547Z,23.30
2019-02-27T12:40:58.526Z,22.20
2019-02-27T12:41:56.537Z,22.19
2019-02-27T12:42:56.571Z,22.19
2019-02-27T12:43:56.748Z,23.38
2019-02-27T12:44:56.509Z,22.50
2019-02-27T12:45:57.668Z,21.30
2019-02-27T12:46:56.471Z,23.18
2019-02-27T12:47:56.457Z,21.78
2019-02-27T12:48:56.475Z,22.28
2019-02-27T12:49:56.446Z,22.48
2019-02-27T12:50:56.425Z,21.78
2019-02-27T12:51:56.430Z,21.99
2019-02-27T12:52:56.438Z,22.38
2019-02-27T12:53:56.428Z,21.97
2019-02-27T12:54:59.189Z,22.08
2019-02-27T12:55:57.402Z,21.57
2019-02-27T12:56:56.364Z,23.26
2019-02-27T12:57:56.360Z,23.05
2019-02-27T12:58:58.750Z,22.17
2019-02-27T12:59:56.343Z,22.49
2019-02-27T13:00:56.314Z,22.29
2019-02-27T13:01:56.308Z,22.97
2019-02-27T13:02:56.298Z,22.37
2019-02-27T13:03:56.863Z,22.37
2019-02-27T13:04:57.883Z,22.55
2019-02-27T13:05:58.175Z,22.45
2019-02-27T13:06:56.249Z,21.17
2019-02-27T13:07:56.236Z,21.97
2019-02-27T13:08:56.250Z,22.17
2019-02-27T13:09:58.756Z,22.45
2019-02-27T13:10:56.223Z,22.84
2019-02-27T13:11:56.210Z,22.17
2019-02-27T13:12:56.188Z,22.18
2019-02-27T13:13:57.254Z,22.48
2019-02-27T13:14:56.196Z,22.37